createdAt,value
2018-12-05T00:02:13.339Z,26.67
2018-12-05T00:04:40.028Z,29.80
2018-12-05T00:07:06.667Z,32.47
2018-12-05T00:09:33.409Z,46.33
2018-12-05T00:12:00.101Z,30.50
2018-12-05T00:14:27.820Z,14.20
2018-12-05T00:16:54.518Z,14.37
2018-12-05T00:19:21.137Z,16.77
2018-12-05T00:21:47.863Z,20.33
2018-12-05T00:24:14.506Z,29.70
2018-12-05T00:26:41.128Z,21.33
2018-12-05T00:29:07.903Z,23.07
2018-12-05T00:31:34.506Z,15.80
2018-12-05T00:34:01.115Z,23.53
2018-12-05T00:36:27.743Z,25.10
2018-12-05T00:38:54.253Z,29.33
2018-12-05T00:41:20.864Z,21.73
2018-12-05T00:43:47.722Z,29.57
2018-12-05T00:46:14.379Z,28.63
2018-12-05T00:48:41.085Z,20.63
2018-12-05T00:51:07.571Z,36.97
2018-12-05T00:53:34.137Z,16.57
2018-12-05T00:56:00.610Z,46.40
2018-12-05T00:58:27.331Z,22.97
2018-12-05T01:00:53.953Z,31.43
2018-12-05T01:03:20.687Z,48.13
2018-12-05T01:05:47.277Z,25.93
2018-12-05T01:08:13.803Z,25.77
2018-12-05T01:10:40.375Z,45.93
2018-12-05T01:13:06.882Z,42.50
2018-12-05T01:15:33.775Z,46.80
2018-12-05T01:18:00.562Z,39.43
2018-12-05T01:20:27.308Z,30.90
2018-12-05T01:22:53.947Z,34.37
2018-12-05T01:25:20.419Z,19.27
2018-12-05T01:27:47.042Z,25.50
2018-12-05T01:30:13.616Z,53.50
2018-12-05T01:32:40.428Z,22.47
2018-12-05T01:35:07.124Z,27.77
2018-12-05T01:37:33.718Z,26.93
2018-12-05T01:40:00.392Z,52.77
2018-12-05T01:42:26.981Z,21.70
2018-12-05T01:44:54.095Z,25.13
2018-12-05T01:47:20.771Z,28.97
2018-12-05T01:49:47.244Z,22.93
2018-12-05T01:52:13.947Z,19.63
2018-12-05T01:54:40.706Z,17.43
2018-12-05T01:57:07.441Z,26.53
2018-12-05T01:59:34.089Z,29.70
2018-12-05T02:02:00.849Z,23.77
2018-12-05T02:04:27.475Z,37.47
2018-12-05T02:06:54.175Z,23.57
2018-12-05T02:09:20.915Z,36.17
2018-12-05T02:11:47.533Z,29.17
2018-12-05T02:14:14.036Z,30.30
2018-12-05T02:16:40.835Z,31.00
2018-12-05T02:19:07.332Z,27.43
2018-12-05T02:21:34.022Z,21.67
2018-12-05T02:24:00.666Z,24.40
2018-12-05T02:26:27.291Z,22.97
2018-12-05T02:28:54.026Z,22.00
2018-12-05T02:31:20.891Z,22.30
2018-12-05T02:33:47.617Z,22.93
2018-12-05T02:36:14.262Z,24.70
2018-12-05T02:38:40.924Z,19.13
2018-12-05T02:41:07.402Z,23.73
2018-12-05T02:43:33.895Z,25.00
2018-12-05T02:46:00.646Z,37.17
2018-12-05T02:48:27.384Z,35.67
2018-12-05T02:50:54.011Z,44.83
2018-12-05T02:53:20.835Z,45.43
2018-12-05T02:55:47.586Z,29.23
2018-12-05T02:58:14.175Z,39.60
2018-12-05T03:00:40.780Z,33.87
2018-12-05T03:03:07.285Z,34.83
2018-12-05T03:05:33.917Z,33.00
2018-12-05T03:08:00.515Z,39.80
2018-12-05T03:10:27.099Z,40.00
2018-12-05T03:12:53.810Z,33.87
2018-12-05T03:15:20.495Z,38.33
2018-12-05T03:17:47.111Z,36.07
2018-12-05T03:20:13.699Z,31.30
2018-12-05T03:22:40.322Z,33.20
2018-12-05T03:25:06.968Z,38.27
2018-12-05T03:27:33.579Z,30.40
2018-12-05T03:30:00.181Z,27.43
2018-12-05T03:32:26.751Z,32.80
2018-12-05T03:34:53.367Z,34.93
2018-12-05T03:37:19.982Z,36.53
2018-12-05T03:39:46.470Z,36.90
2018-12-05T03:42:13.066Z,48.63
2018-12-05T03:44:39.674Z,50.53
2018-12-05T03:47:06.297Z,35.43
2018-12-05T03:49:32.916Z,51.43
2018-12-05T03:51:59.506Z,55.53
2018-12-05T03:54:26.357Z,32.53
2018-12-05T03:56:52.803Z,29.43
2018-12-05T03:59:19.399Z,34.23
2018-12-05T04:01:45.769Z,29.47
2018-12-05T04:04:12.481Z,41.87
2018-12-05T04:06:39.163Z,51.53
2018-12-05T04:09:05.776Z,57.13
2018-12-05T04:11:32.366Z,34.40
2018-12-05T04:13:58.838Z,37.80
2018-12-05T04:16:25.429Z,54.23
2018-12-05T04:18:51.937Z,41.27
2018-12-05T04:21:18.419Z,51.07
2018-12-05T04:23:44.930Z,39.27
2018-12-05T04:26:11.631Z,45.40
2018-12-05T04:28:38.338Z,85.47
2018-12-05T04:31:04.937Z,51.50
2018-12-05T04:33:31.545Z,31.43
2018-12-05T04:35:58.038Z,44.90
2018-12-05T04:38:24.515Z,54.53
2018-12-05T04:40:51.120Z,48.40
2018-12-05T04:43:17.514Z,37.83
2018-12-05T04:45:44.105Z,36.97
2018-12-05T04:48:10.646Z,28.20
2018-12-05T04:50:37.236Z,35.77
2018-12-05T04:53:03.811Z,40.10
2018-12-05T04:55:30.386Z,28.63
2018-12-05T04:57:57.079Z,45.13
2018-12-05T05:00:23.800Z,40.20
2018-12-05T05:02:50.334Z,42.87
2018-12-05T05:05:17.787Z,33.10
2018-12-05T05:07:44.608Z,55.77
2018-12-05T05:10:13.107Z,59.30
2018-12-05T05:12:39.799Z,50.50
2018-12-05T05:15:06.413Z,73.00
2018-12-05T05:17:32.917Z,110.93
2018-12-05T05:19:59.421Z,48.30
2018-12-05T05:22:25.898Z,96.07
2018-12-05T05:24:52.381Z,73.30
2018-12-05T05:27:18.967Z,92.83
2018-12-05T05:29:45.468Z,92.63
2018-12-05T05:32:11.934Z,72.70
2018-12-05T05:34:38.435Z,43.23
2018-12-05T05:37:05.023Z,50.80
2018-12-05T05:39:31.622Z,67.40
2018-12-05T05:41:58.130Z,38.57
2018-12-05T05:44:24.595Z,53.53
2018-12-05T05:46:51.097Z,49.07
2018-12-05T05:49:17.711Z,37.90
2018-12-05T05:51:44.321Z,41.93
2018-12-05T05:54:10.707Z,36.03
2018-12-05T05:56:37.451Z,39.17
2018-12-05T05:59:03.814Z,47.47
2018-12-05T06:01:30.426Z,25.83
2018-12-05T06:03:57.527Z,22.50
2018-12-05T06:06:23.902Z,19.60
2018-12-05T06:08:50.607Z,30.20
2018-12-05T06:11:17.201Z,25.47
2018-12-05T06:13:43.795Z,19.93
2018-12-05T06:16:10.295Z,22.07
2018-12-05T06:18:36.718Z,26.30
2018-12-05T06:21:03.302Z,23.70
2018-12-05T06:23:29.770Z,25.57
2018-12-05T06:25:56.276Z,22.13
2018-12-05T06:28:22.858Z,23.53
2018-12-05T06:30:49.447Z,31.23
2018-12-05T06:33:15.935Z,26.10
2018-12-05T06:35:42.315Z,22.30
2018-12-05T06:38:08.796Z,25.17
2018-12-05T06:40:35.388Z,23.30
2018-12-05T06:43:01.991Z,25.97
2018-12-05T06:45:28.476Z,29.50
2018-12-05T06:47:55.095Z,24.10
2018-12-05T06:50:21.678Z,24.47
2018-12-05T06:52:48.331Z,23.00
2018-12-05T06:55:14.843Z,22.13
2018-12-05T06:57:41.435Z,25.20
2018-12-05T07:00:08.232Z,21.13
2018-12-05T07:02:35.007Z,24.40
2018-12-05T07:05:01.414Z,26.57
2018-12-05T07:07:28.505Z,26.53
2018-12-05T07:09:54.990Z,25.50
2018-12-05T07:12:21.493Z,23.07
2018-12-05T07:14:47.967Z,22.20
2018-12-05T07:17:14.455Z,27.17
2018-12-05T07:19:40.947Z,27.57
2018-12-05T07:22:07.427Z,25.80
2018-12-05T07:24:34.128Z,21.07
2018-12-05T07:27:00.666Z,56.33
2018-12-05T07:29:27.259Z,45.37
2018-12-05T07:31:53.632Z,30.43
2018-12-05T07:34:20.002Z,32.67
2018-12-05T07:36:46.593Z,28.00
2018-12-05T07:39:13.192Z,24.30
2018-12-05T07:41:39.776Z,23.30
2018-12-05T07:44:06.258Z,23.30
2018-12-05T07:46:32.739Z,24.40
2018-12-05T07:48:59.287Z,20.40
2018-12-05T07:51:25.651Z,22.67
2018-12-05T07:53:52.242Z,21.77
2018-12-05T07:56:18.833Z,24.17
2018-12-05T07:58:45.219Z,27.10
2018-12-05T08:01:11.927Z,27.33
2018-12-05T08:03:38.422Z,25.17
2018-12-05T08:06:04.909Z,26.03
2018-12-05T08:08:31.689Z,26.73
2018-12-05T08:10:58.178Z,29.87
2018-12-05T08:13:24.664Z,27.60
2018-12-05T08:15:51.079Z,29.17
2018-12-05T08:18:17.549Z,33.53
2018-12-05T08:20:44.027Z,28.53
2018-12-05T08:23:10.414Z,22.57
2018-12-05T08:25:37.007Z,22.70
2018-12-05T08:28:03.479Z,29.30
2018-12-05T08:30:30.082Z,28.17
2018-12-05T08:32:56.442Z,29.33
2018-12-05T08:35:22.927Z,24.43
2018-12-05T08:37:49.527Z,22.73
2018-12-05T08:40:15.919Z,28.90
2018-12-05T08:42:42.506Z,20.10
2018-12-05T08:45:08.986Z,18.27
2018-12-05T08:47:35.498Z,25.53
2018-12-05T08:50:02.621Z,24.20
2018-12-05T08:52:29.114Z,25.00
2018-12-05T08:54:55.487Z,26.10
2018-12-05T08:57:21.855Z,25.13
2018-12-05T08:59:48.459Z,20.97
2018-12-05T09:02:15.049Z,16.70
2018-12-05T09:04:41.660Z,17.37
2018-12-05T09:07:08.157Z,16.97
2018-12-05T09:09:34.742Z,20.63
2018-12-05T09:12:01.429Z,18.57
2018-12-05T09:14:28.862Z,24.40
2018-12-05T09:16:55.451Z,21.57
2018-12-05T09:19:21.927Z,18.07
2018-12-05T09:21:48.434Z,15.50
2018-12-05T09:24:15.026Z,19.23
2018-12-05T09:26:41.627Z,13.60
2018-12-05T09:29:08.115Z,17.57
2018-12-05T09:31:34.595Z,12.90
2018-12-05T09:34:01.195Z,16.67
2018-12-05T09:36:27.696Z,18.10
2018-12-05T09:38:54.323Z,16.93
2018-12-05T09:41:20.804Z,12.63
2018-12-05T09:43:47.411Z,15.23
2018-12-05T09:46:13.908Z,12.00
2018-12-05T09:48:40.523Z,14.17
2018-12-05T09:51:06.998Z,12.53
2018-12-05T09:53:33.488Z,16.23
2018-12-05T09:56:00.095Z,12.97
2018-12-05T09:58:26.614Z,11.57
2018-12-05T10:00:53.190Z,12.30
2018-12-05T10:03:19.680Z,11.30
2018-12-05T10:05:46.171Z,11.23
2018-12-05T10:08:12.779Z,13.50
2018-12-05T10:10:39.265Z,13.53
2018-12-05T10:13:05.647Z,11.70
2018-12-05T10:15:32.120Z,10.70
2018-12-05T10:17:58.608Z,13.83
2018-12-05T10:20:25.095Z,9.83
2018-12-05T10:22:51.595Z,11.40
2018-12-05T10:25:18.080Z,9.90
2018-12-05T10:27:44.446Z,11.10
2018-12-05T10:30:11.187Z,14.37
2018-12-05T10:32:37.794Z,9.80
2018-12-05T10:35:04.421Z,11.53
2018-12-05T10:37:30.799Z,9.07
2018-12-05T10:39:57.159Z,8.37
2018-12-05T10:42:23.879Z,10.57
2018-12-05T10:44:50.466Z,10.27
2018-12-05T10:47:17.036Z,8.77
2018-12-05T10:49:43.653Z,9.97
2018-12-05T10:52:10.128Z,10.03
2018-12-05T10:54:36.627Z,10.93
2018-12-05T10:57:03.142Z,10.60
2018-12-05T10:59:29.624Z,18.07
2018-12-05T11:01:58.038Z,10.27
2018-12-05T11:04:26.560Z,12.93
2018-12-05T11:06:55.071Z,7.37
2018-12-05T11:09:23.478Z,8.50
2018-12-05T11:11:51.863Z,11.03
2018-12-05T11:14:20.302Z,7.33
2018-12-05T11:16:48.838Z,8.00
2018-12-05T11:19:17.369Z,8.47
2018-12-05T11:21:49.674Z,7.23
2018-12-05T11:24:16.283Z,9.20
2018-12-05T11:26:42.772Z,11.23
2018-12-05T11:29:09.239Z,10.63
2018-12-05T11:31:35.719Z,9.00
2018-12-05T11:34:02.204Z,8.90
2018-12-05T11:36:28.916Z,9.90
2018-12-05T11:38:55.642Z,28.33
2018-12-05T11:41:22.119Z,10.10
2018-12-05T11:43:48.726Z,10.37
2018-12-05T11:46:15.378Z,10.83
2018-12-05T11:48:41.989Z,10.20
2018-12-05T11:51:08.574Z,9.80
2018-12-05T11:53:34.944Z,8.57
2018-12-05T11:56:01.523Z,7.27
2018-12-05T11:58:28.136Z,9.10
2018-12-05T12:00:54.631Z,11.33
2018-12-05T12:03:21.229Z,9.60
2018-12-05T12:05:47.782Z,11.10
2018-12-05T12:08:14.331Z,13.50
2018-12-05T12:10:41.133Z,15.27
2018-12-05T12:13:08.039Z,13.97
2018-12-05T12:15:34.626Z,17.33
2018-12-05T12:18:01.097Z,15.03
2018-12-05T12:20:27.694Z,18.40
2018-12-05T12:22:54.198Z,12.73
2018-12-05T12:25:20.795Z,11.47
2018-12-05T12:27:47.385Z,8.00
2018-12-05T12:30:16.129Z,10.30
2018-12-05T12:32:42.488Z,11.20
2018-12-05T12:35:08.963Z,12.90
2018-12-05T12:37:35.550Z,13.53
2018-12-05T12:40:02.007Z,8.37
2018-12-05T12:42:28.384Z,9.50
2018-12-05T12:44:54.982Z,9.73
2018-12-05T12:47:21.458Z,9.47
2018-12-05T12:49:47.980Z,12.67
2018-12-05T12:52:14.695Z,11.00
2018-12-05T12:54:41.471Z,9.63
2018-12-05T12:57:08.071Z,13.07
2018-12-05T12:59:34.398Z,10.73
2018-12-05T13:02:00.871Z,12.70
2018-12-05T13:04:27.582Z,12.90
2018-12-05T13:06:54.090Z,13.23
2018-12-05T13:09:20.580Z,14.70
2018-12-05T13:11:47.089Z,10.87
2018-12-05T13:14:13.571Z,12.60
2018-12-05T13:16:40.082Z,10.63
2018-12-05T13:19:06.535Z,12.40
2018-12-05T13:21:33.150Z,11.50
2018-12-05T13:23:59.610Z,12.20
2018-12-05T13:26:26.213Z,10.23
2018-12-05T13:28:52.736Z,10.80
2018-12-05T13:31:19.238Z,16.77
2018-12-05T13:33:45.924Z,14.03
2018-12-05T13:36:12.402Z,11.57
2018-12-05T13:38:38.891Z,13.33
2018-12-05T13:41:05.632Z,11.13
2018-12-05T13:43:32.115Z,10.73
2018-12-05T13:45:58.642Z,11.80
2018-12-05T13:48:25.013Z,12.33
2018-12-05T13:50:51.553Z,9.10
2018-12-05T13:53:18.023Z,11.50
2018-12-05T13:55:44.629Z,9.93
2018-12-05T13:58:11.146Z,11.47
2018-12-05T14:00:37.861Z,10.40
2018-12-05T14:03:04.472Z,9.63
2018-12-05T14:05:30.969Z,11.53
2018-12-05T14:07:57.492Z,14.47
2018-12-05T14:10:23.978Z,10.83
2018-12-05T14:12:50.583Z,11.53
2018-12-05T14:15:17.292Z,8.77
2018-12-05T14:17:43.787Z,10.23
2018-12-05T14:20:10.277Z,11.90
2018-12-05T14:22:36.797Z,10.43
2018-12-05T14:25:03.263Z,11.63
2018-12-05T14:27:29.955Z,12.30
2018-12-05T14:29:56.559Z,10.97
2018-12-05T14:32:23.299Z,11.87
2018-12-05T14:34:49.956Z,10.63
2018-12-05T14:37:16.475Z,9.27
2018-12-05T14:39:42.963Z,12.80
2018-12-05T14:42:09.483Z,12.27
2018-12-05T14:44:36.081Z,13.93
2018-12-05T14:47:02.555Z,18.17
2018-12-05T14:49:29.078Z,9.63
2018-12-05T14:51:55.559Z,10.30
2018-12-05T14:54:22.140Z,15.13
2018-12-05T14:56:48.774Z,10.13
2018-12-05T14:59:15.314Z,12.97
2018-12-05T15:01:41.966Z,10.30
2018-12-05T15:04:08.576Z,9.40
2018-12-05T15:06:35.164Z,13.00
2018-12-05T15:09:02.143Z,14.97
2018-12-05T15:11:28.663Z,10.97
2018-12-05T15:13:55.147Z,13.30
2018-12-05T15:16:21.735Z,11.97
2018-12-05T15:18:48.403Z,10.83
2018-12-05T15:21:14.876Z,13.13
2018-12-05T15:23:41.369Z,15.60
2018-12-05T15:26:07.913Z,16.17
2018-12-05T15:28:34.655Z,17.13
2018-12-05T15:31:01.246Z,15.87
2018-12-05T15:33:27.599Z,10.80
2018-12-05T15:35:54.219Z,12.03
2018-12-05T15:38:20.812Z,11.97
2018-12-05T15:40:47.303Z,15.30
2018-12-05T15:43:13.814Z,11.93
2018-12-05T15:45:40.184Z,12.20
2018-12-05T15:48:06.663Z,12.23
2018-12-05T15:50:33.178Z,12.67
2018-12-05T15:52:59.651Z,15.10
2018-12-05T15:55:27.398Z,13.43
2018-12-05T15:57:54.103Z,11.27
2018-12-05T16:00:20.819Z,10.53
2018-12-05T16:02:47.212Z,13.17
2018-12-05T16:05:13.753Z,14.93
2018-12-05T16:07:40.285Z,11.80
2018-12-05T16:10:06.916Z,14.43
2018-12-05T16:12:33.435Z,18.50
2018-12-05T16:15:00.064Z,17.77
2018-12-05T16:17:26.783Z,20.37
2018-12-05T16:19:53.383Z,15.80
2018-12-05T16:22:19.892Z,19.90
2018-12-05T16:24:46.534Z,19.87
2018-12-05T16:27:12.912Z,14.13
2018-12-05T16:29:39.422Z,17.33
2018-12-05T16:32:06.152Z,19.87
2018-12-05T16:34:32.781Z,18.87
2018-12-05T16:36:59.316Z,19.70
2018-12-05T16:39:25.692Z,32.77
2018-12-05T16:41:52.172Z,26.70
2018-12-05T16:44:18.806Z,18.60
2018-12-05T16:46:46.366Z,17.87
2018-12-05T16:49:12.970Z,20.33
2018-12-05T16:51:39.500Z,18.37
2018-12-05T16:54:06.303Z,22.00
2018-12-05T16:56:32.908Z,19.80
2018-12-05T16:58:59.387Z,19.77
2018-12-05T17:01:25.876Z,17.20
2018-12-05T17:03:52.503Z,23.03
2018-12-05T17:06:19.026Z,17.03
2018-12-05T17:08:45.545Z,19.60
2018-12-05T17:11:12.027Z,18.50
2018-12-05T17:13:40.488Z,21.33
2018-12-05T17:16:06.863Z,19.23
2018-12-05T17:18:33.362Z,15.10
2018-12-05T17:20:59.844Z,16.80
2018-12-05T17:23:26.370Z,19.20
2018-12-05T17:25:52.975Z,15.53
2018-12-05T17:28:19.346Z,17.40
2018-12-05T17:30:45.855Z,17.37
2018-12-05T17:33:12.356Z,16.90
2018-12-05T17:35:38.955Z,21.03
2018-12-05T17:38:05.484Z,21.27
2018-12-05T17:40:32.019Z,21.67
2018-12-05T17:42:58.542Z,17.67
2018-12-05T17:45:25.136Z,22.03
2018-12-05T17:47:51.652Z,21.50
2018-12-05T17:50:18.151Z,20.93
2018-12-05T17:52:44.734Z,18.73
2018-12-05T17:55:11.334Z,19.90
2018-12-05T17:57:37.820Z,22.37
2018-12-05T18:00:04.627Z,21.43
2018-12-05T18:02:31.234Z,28.77
2018-12-05T18:04:57.856Z,31.20
2018-12-05T18:07:24.484Z,26.67
2018-12-05T18:09:51.088Z,22.87
2018-12-05T18:12:17.723Z,21.07
2018-12-05T18:14:44.092Z,24.97
2018-12-05T18:17:10.582Z,24.07
2018-12-05T18:19:37.183Z,22.63
2018-12-05T18:22:03.783Z,27.27
2018-12-05T18:24:30.279Z,23.50
2018-12-05T18:26:56.649Z,24.03
2018-12-05T18:29:23.027Z,22.80
2018-12-05T18:31:49.546Z,25.17
2018-12-05T18:34:16.151Z,26.93
2018-12-05T18:36:42.746Z,19.63
2018-12-05T18:39:09.160Z,23.67
2018-12-05T18:41:35.663Z,29.20
2018-12-05T18:44:02.144Z,29.40
2018-12-05T18:46:28.650Z,21.40
2018-12-05T18:48:55.269Z,21.27
2018-12-05T18:51:21.751Z,24.53
2018-12-05T18:53:48.244Z,23.90
2018-12-05T18:56:14.778Z,27.63
2018-12-05T18:58:41.289Z,22.83
2018-12-05T19:01:07.912Z,21.13
2018-12-05T19:03:34.395Z,22.17
2018-12-05T19:06:01.015Z,20.63
2018-12-05T19:08:34.063Z,22.93
2018-12-05T19:10:56.223Z,22.23
2018-12-05T19:13:22.928Z,24.77
2018-12-05T19:15:49.550Z,22.10
2018-12-05T19:18:16.032Z,20.00
2018-12-05T19:20:42.540Z,19.83
2018-12-05T19:23:08.956Z,23.17
2018-12-05T19:25:35.466Z,23.33
2018-12-05T19:28:01.957Z,19.80
2018-12-05T19:30:28.442Z,16.90
2018-12-05T19:32:54.939Z,21.93
2018-12-05T19:35:21.352Z,18.60
2018-12-05T19:37:47.880Z,17.50
2018-12-05T19:40:14.242Z,14.17
2018-12-05T19:42:40.614Z,21.07
2018-12-05T19:45:07.210Z,16.27
2018-12-05T19:47:33.755Z,14.47
2018-12-05T19:50:00.324Z,13.80
2018-12-05T19:52:26.835Z,16.87
2018-12-05T19:54:53.335Z,14.13
2018-12-05T19:57:19.711Z,13.73
2018-12-05T19:59:46.323Z,14.90
2018-12-05T20:02:12.839Z,15.40
2018-12-05T20:04:39.345Z,19.77
2018-12-05T20:07:06.070Z,16.20
2018-12-05T20:09:32.556Z,24.67
2018-12-05T20:11:59.268Z,20.57
2018-12-05T20:14:27.784Z,15.80
2018-12-05T20:16:54.291Z,18.33
2018-12-05T20:19:20.795Z,14.07
2018-12-05T20:21:47.267Z,16.20
2018-12-05T20:24:13.771Z,17.33
2018-12-05T20:26:40.399Z,11.33
2018-12-05T20:29:06.996Z,15.20
2018-12-05T20:31:33.470Z,11.50
2018-12-05T20:33:59.983Z,11.37
2018-12-05T20:36:26.452Z,13.03
2018-12-05T20:38:52.954Z,12.10
2018-12-05T20:41:19.681Z,14.50
2018-12-05T20:43:46.305Z,12.90
2018-12-05T20:46:12.791Z,10.87
2018-12-05T20:48:39.515Z,12.87
2018-12-05T20:51:06.027Z,11.53
2018-12-05T20:53:32.747Z,11.80
2018-12-05T20:55:59.188Z,14.67
2018-12-05T20:58:25.947Z,12.90
2018-12-05T21:00:52.423Z,20.67
2018-12-05T21:03:18.923Z,12.47
2018-12-05T21:05:45.408Z,11.50
2018-12-05T21:08:12.103Z,12.77
2018-12-05T21:10:38.910Z,9.50
2018-12-05T21:13:05.344Z,9.93
2018-12-05T21:15:31.715Z,12.67
2018-12-05T21:17:58.424Z,11.67
2018-12-05T21:20:24.976Z,13.23
2018-12-05T21:22:51.486Z,8.37
2018-12-05T21:25:18.087Z,10.97
2018-12-05T21:27:44.578Z,11.47
2018-12-05T21:30:11.182Z,9.40
2018-12-05T21:32:37.648Z,8.30
2018-12-05T21:35:04.250Z,8.73
2018-12-05T21:37:30.922Z,9.60
2018-12-05T21:39:57.572Z,12.57
2018-12-05T21:42:24.257Z,9.00
2018-12-05T21:44:50.961Z,9.80
2018-12-05T21:47:17.459Z,9.10
2018-12-05T21:49:44.070Z,9.93
2018-12-05T21:52:10.701Z,9.77
2018-12-05T21:54:37.329Z,12.03
2018-12-05T21:57:03.695Z,13.07
2018-12-05T21:59:30.242Z,12.10
2018-12-05T22:01:56.873Z,9.50
2018-12-05T22:04:23.599Z,13.53
2018-12-05T22:06:49.960Z,9.40
2018-12-05T22:09:16.371Z,12.23
2018-12-05T22:11:43.052Z,8.80
2018-12-05T22:14:09.567Z,11.17
2018-12-05T22:16:36.166Z,11.73
2018-12-05T22:19:03.825Z,10.97
2018-12-05T22:21:30.418Z,9.10
2018-12-05T22:23:58.104Z,10.90
2018-12-05T22:26:24.690Z,9.63
2018-12-05T22:28:51.276Z,8.77
2018-12-05T22:31:17.871Z,10.73
2018-12-05T22:33:44.592Z,10.87
2018-12-05T22:36:11.191Z,14.40
2018-12-05T22:38:37.548Z,11.47
2018-12-05T22:41:04.162Z,9.00
2018-12-05T22:43:30.750Z,8.47
2018-12-05T22:45:57.447Z,10.07
2018-12-05T22:48:24.326Z,10.10
2018-12-05T22:50:50.837Z,11.10
2018-12-05T22:53:17.222Z,11.13
2018-12-05T22:55:44.511Z,11.57
2018-12-05T22:58:10.997Z,5.63
2018-12-05T23:00:41.358Z,10.10
2018-12-05T23:03:07.967Z,9.17
2018-12-05T23:05:34.886Z,10.20
2018-12-05T23:08:01.266Z,11.57
2018-12-05T23:10:27.938Z,8.17
2018-12-05T23:12:54.730Z,7.90
2018-12-05T23:15:21.191Z,8.37
2018-12-05T23:17:47.790Z,14.90
2018-12-05T23:20:14.243Z,10.10
2018-12-05T23:22:40.960Z,11.53
2018-12-05T23:25:07.323Z,10.60
2018-12-05T23:27:33.923Z,9.23
2018-12-05T23:30:00.619Z,10.17
2018-12-05T23:32:26.979Z,7.70
2018-12-05T23:34:53.463Z,9.33
2018-12-05T23:37:19.818Z,9.77
2018-12-05T23:39:46.301Z,11.33
2018-12-05T23:42:12.899Z,8.03
2018-12-05T23:44:39.494Z,10.57
2018-12-05T23:47:06.072Z,11.43
2018-12-05T23:49:32.432Z,11.57
2018-12-05T23:51:59.038Z,9.07
2018-12-05T23:54:25.633Z,6.87
2018-12-05T23:56:53.433Z,8.77
2018-12-05T23:59:20.138Z,9.30
